Altoona, Florida
Current Conditions -  °F | °C
As of 10:53 AM on Thursday 18 Dec 2014 (Local Time) from KLEE Reporting Station
Clear Clear  
Wind Chill: 16°   Ceiling: Unl
Heat Index: 16°   Visibility: 10mi
Dew Point:   Wind: 3mph
Humidity: 58%   Direction: NA
Pressure: 30.2"   Gusts: NA
Location:  28.97°N, 81.65°W
Report Text: KLEE 181553Z VRB03KT 10SM CLR 16/08 A3020 RMK AO2 SLP226 T01610078
Loading
Personal Weather Stations






























Interactive Weather Map New forecast layout! Learn more

10-Day Weather Forecast

Advertisements
Track Severe Weather on mobile